Time;durP1;ratioP1;P1;durP2;ratioP2;P2;SDS_P1;SDS_P2;PMS_P1;PMS_P2;Temp;Humidity;BMP_temperature;BMP_pressure;BME280_temperature;BME280_humidity;BME280_pressure;Samples;Min_cycle;Max_cycle;Signal;HPM_P1;HPM_P2
2021/09/27 00:02:10;;;;;;;4.50;4.00;;;;;;;23.57;50.37;101570.84;144994;581;5003;-78
2021/09/27 00:04:36;;;;;;;5.47;3.90;;;;;;;23.57;50.22;101578.81;144994;579;5002;-79
2021/09/27 00:07:03;;;;;;;9.15;6.15;;;;;;;23.58;50.30;101575.28;144994;593;5002;-78
2021/09/27 00:09:35;;;;;;;4.00;3.60;;;;;;;23.55;50.35;101581.47;144994;616;5002;-76
2021/09/27 00:12:03;;;;;;;3.67;3.08;;;;;;;23.54;50.51;101574.41;144994;580;5002;-78
2021/09/27 00:14:30;;;;;;;4.40;3.30;;;;;;;23.52;50.55;101573.56;144994;621;5002;-76
2021/09/27 00:16:57;;;;;;;4.80;2.80;;;;;;;23.51;50.37;101571.78;144994;619;5002;-79
2021/09/27 00:19:24;;;;;;;3.97;2.53;;;;;;;23.50;50.18;101578.87;144994;569;5002;-77
2021/09/27 00:21:52;;;;;;;3.50;2.58;;;;;;;23.49;50.25;101578.87;144994;571;5002;-76
2021/09/27 00:24:20;;;;;;;4.78;2.65;;;;;;;23.48;50.09;101582.41;144994;581;5002;-79
2021/09/27 00:26:47;;;;;;;2.25;2.05;;;;;;;23.46;49.99;101585.06;144994;590;5002;-77
2021/09/27 00:29:14;;;;;;;2.83;2.40;;;;;;;23.45;49.98;101575.38;144994;620;5002;-78
2021/09/27 00:31:41;;;;;;;4.45;3.17;;;;;;;23.43;50.10;101569.25;144994;627;5002;-78
2021/09/27 00:34:08;;;;;;;4.32;3.33;;;;;;;23.42;50.16;101567.47;144994;594;5002;-78
2021/09/27 00:36:34;;;;;;;3.90;3.28;;;;;;;23.41;50.30;101571.00;144994;570;5002;-79
2021/09/27 00:39:02;;;;;;;2.92;2.28;;;;;;;23.39;50.12;101558.69;144994;618;5002;-77
2021/09/27 00:41:29;;;;;;;2.70;2.30;;;;;;;23.38;50.32;101560.44;144994;590;5002;-78
2021/09/27 00:43:55;;;;;;;2.67;2.25;;;;;;;23.36;50.27;101563.09;144994;645;5002;-79
2021/09/27 00:46:25;;;;;;;4.55;4.00;;;;;;;23.36;50.20;101562.22;144994;569;5002;-77
2021/09/27 00:48:52;;;;;;;3.80;3.42;;;;;;;23.33;50.25;101552.53;144994;564;5002;-77
2021/09/27 00:51:33;;;;;;;4.60;3.60;;;;;;;23.33;50.22;101552.53;144994;581;5002;-76
2021/09/27 00:54:25;;;;;;;4.68;3.92;;;;;;;23.34;50.42;101564.03;144994;564;5002;-77
2021/09/27 00:56:55;;;;;;;3.60;3.17;;;;;;;23.32;50.13;101549.91;144994;655;5004;-78
2021/09/27 00:59:24;;;;;;;5.15;2.92;;;;;;;23.31;49.98;101556.09;144994;573;5004;-78
2021/09/27 01:01:52;;;;;;;2.97;2.50;;;;;;;23.30;49.89;101557.84;144994;581;5005;-79
2021/09/27 01:04:18;;;;;;;6.28;2.15;;;;;;;23.28;49.83;101554.34;144994;571;5004;-76
2021/09/27 01:07:27;;;;;;;2.28;2.08;;;;;;;23.26;49.73;101557.94;144994;561;5004;-77
2021/09/27 01:10:47;;;;;;;2.60;2.05;;;;;;;23.23;49.46;101565.91;144994;627;5002;-76
2021/09/27 01:13:54;;;;;;;2.90;2.12;;;;;;;23.18;49.38;101561.50;144994;581;5002;-77
2021/09/27 01:16:39;;;;;;;1.90;1.80;;;;;;;23.12;49.33;101553.62;144994;597;5002;-78
2021/09/27 01:20:11;;;;;;;4.10;3.22;;;;;;;23.09;49.23;101564.25;144994;585;5002;-77
2021/09/27 01:23:18;;;;;;;2.70;2.50;;;;;;;23.05;48.96;101562.50;144994;563;5002;-78
2021/09/27 01:26:23;;;;;;;2.67;2.40;;;;;;;23.03;48.90;101563.38;144994;628;5004;-78
2021/09/27 01:29:29;;;;;;;2.60;2.40;;;;;;;23.01;48.61;101561.63;144994;589;5004;-78
2021/09/27 01:32:33;;;;;;;2.90;1.90;;;;;;;23.03;48.35;101556.31;144994;592;5004;-79
2021/09/27 01:35:31;;;;;;;2.17;1.80;;;;;;;23.03;48.32;101555.44;144994;607;5002;-79
2021/09/27 01:38:43;;;;;;;2.67;1.73;;;;;;;23.03;48.39;101560.75;144994;565;5004;-78
2021/09/27 01:41:35;;;;;;;3.87;1.90;;;;;;;23.03;48.40;101558.09;144994;587;5004;-77
2021/09/27 01:44:31;;;;;;;1.90;1.80;;;;;;;23.01;48.42;101552.81;144994;605;5004;-79
2021/09/27 01:47:22;;;;;;;2.50;1.90;;;;;;;22.99;48.23;101555.47;144994;596;5002;-76
2021/09/27 01:50:28;;;;;;;2.50;2.30;;;;;;;22.98;48.13;101542.25;144994;604;5004;-77
2021/09/27 01:53:05;;;;;;;3.65;2.30;;;;;;;22.98;48.13;101535.16;144994;567;5004;-78
2021/09/27 01:55:42;;;;;;;3.47;2.05;;;;;;;22.98;48.11;101529.00;144994;564;5004;-77
2021/09/27 01:58:45;;;;;;;2.28;2.12;;;;;;;22.97;47.91;101532.53;144994;587;5004;-78
2021/09/27 02:01:26;;;;;;;3.00;2.28;;;;;;;22.95;47.88;101534.31;144994;578;4568;-75
2021/09/27 02:04:05;;;;;;;3.10;2.30;;;;;;;22.95;48.00;101526.38;144994;585;4572;-78
2021/09/27 02:06:46;;;;;;;2.80;2.22;;;;;;;22.93;47.71;101525.53;144994;571;4572;-78
2021/09/27 02:09:28;;;;;;;2.40;2.20;;;;;;;22.92;48.04;101523.75;144992;569;6002;-78
2021/09/27 02:12:02;;;;;;;2.47;2.12;;;;;;;22.92;47.96;101518.47;144992;604;6002;-78
2021/09/27 02:14:45;;;;;;;2.90;2.20;;;;;;;22.91;47.68;101527.31;144991;672;6002;-77
2021/09/27 02:17:26;;;;;;;2.47;2.10;;;;;;;22.91;47.91;101532.63;144992;578;6002;-79
2021/09/27 02:20:03;;;;;;;2.67;2.47;;;;;;;22.90;47.66;101542.31;144992;615;6002;-78
2021/09/27 02:22:52;;;;;;;2.40;2.08;;;;;;;22.91;48.10;101540.56;144992;596;6002;-78
2021/09/27 02:25:26;;;;;;;3.67;2.25;;;;;;;22.90;47.87;101550.25;144992;610;6004;-79
2021/09/27 02:27:53;;;;;;;4.30;2.30;;;;;;;22.88;47.86;101543.22;144992;592;6004;-78
2021/09/27 02:30:24;;;;;;;2.20;1.95;;;;;;;22.88;47.83;101543.22;144992;587;6006;-76
2021/09/27 02:33:10;;;;;;;2.58;1.92;;;;;;;22.83;47.38;101543.25;144992;621;6004;-75
2021/09/27 02:36:10;;;;;;;2.90;2.00;;;;;;;22.82;47.06;101545.00;144992;612;6004;-76
2021/09/27 02:39:09;;;;;;;2.75;2.00;;;;;;;22.80;47.18;101530.91;144992;579;6004;-78
2021/09/27 02:41:57;;;;;;;5.45;1.98;;;;;;;22.78;46.73;101530.06;144992;579;6002;-77
2021/09/27 02:44:24;;;;;;;3.25;2.05;;;;;;;22.78;46.90;101527.41;144992;569;6002;-78
2021/09/27 02:46:55;;;;;;;2.47;2.28;;;;;;;22.76;46.92;101521.25;144992;594;6002;-76
2021/09/27 02:49:27;;;;;;;3.08;2.20;;;;;;;22.76;46.62;101523.00;144992;571;6002;-75
2021/09/27 02:51:57;;;;;;;3.42;2.33;;;;;;;22.75;46.68;101524.78;144992;605;6002;-77
2021/09/27 02:54:39;;;;;;;2.83;2.37;;;;;;;22.75;46.99;101516.84;144992;612;6002;-77
2021/09/27 02:57:29;;;;;;;3.00;2.70;;;;;;;22.76;47.09;101520.38;144992;636;6002;-77
2021/09/27 03:00:06;;;;;;;4.25;2.60;;;;;;;22.75;46.95;101521.28;144992;583;6004;-77
2021/09/27 03:03:21;;;;;;;3.67;2.62;;;;;;;22.75;47.04;101523.94;144992;625;6004;-77
2021/09/27 03:06:27;;;;;;;3.80;2.92;;;;;;;22.74;47.48;101525.66;144992;569;6002;-77
2021/09/27 03:09:19;;;;;;;4.40;3.83;;;;;;;22.72;47.42;101522.16;144992;630;6002;-77
2021/09/27 03:12:26;;;;;;;4.25;3.30;;;;;;;22.68;47.51;101530.12;144992;582;6002;-78
2021/09/27 03:15:22;;;;;;;2.80;2.60;;;;;;;22.64;47.17;101527.50;144992;570;6004;-77
2021/09/27 03:18:48;;;;;;;4.45;2.45;;;;;;;22.63;47.48;101528.41;144992;621;6002;-77
2021/09/27 03:21:39;;;;;;;;;;;;;;;22.63;47.35;101527.53;144997;912;6002;-77
2021/09/27 03:25:01;;;;;;;7.40;3.00;;;;;;;22.60;47.59;101527.56;144997;585;6002;-75
2021/09/27 03:27:48;;;;;;;5.00;2.45;;;;;;;22.56;47.40;101532.00;144992;591;6004;-77
2021/09/27 03:30:51;;;;;;;4.25;2.62;;;;;;;22.55;47.48;101532.00;144992;628;6004;-77
2021/09/27 03:33:53;;;;;;;6.93;2.80;;;;;;;22.53;47.26;101532.00;144992;601;6002;-76
2021/09/27 03:36:53;;;;;;;5.05;2.30;;;;;;;22.51;46.90;101527.59;144992;612;6002;-78
2021/09/27 03:39:48;;;;;;;4.37;3.12;;;;;;;22.48;47.26;101530.28;144992;567;6004;-76
2021/09/27 03:42:59;;;;;;;5.53;3.58;;;;;;;22.44;47.32;101527.66;144992;571;6004;-77
2021/09/27 03:45:56;;;;;;;6.10;3.75;;;;;;;22.43;47.24;101525.91;144992;590;6004;-78
2021/09/27 03:48:44;;;;;;;11.10;4.90;;;;;;;22.39;48.42;101533.88;144992;581;6002;-76
2021/09/27 03:51:19;;;;;;;9.82;5.65;;;;;;;22.33;47.93;101526.84;144992;584;6002;-77
2021/09/27 03:54:13;;;;;;;8.80;5.90;;;;;;;22.27;48.23;101529.47;144992;576;6002;-77
2021/09/27 03:57:14;;;;;;;10.43;6.72;;;;;;;22.22;49.15;101533.94;144992;575;6002;-78
2021/09/27 04:00:02;;;;;;;10.70;6.87;;;;;;;22.20;49.61;101539.22;144992;644;6002;-77
2021/09/27 04:02:45;;;;;;;13.13;7.25;;;;;;;22.23;49.49;101541.00;144992;610;6002;-76
2021/09/27 04:06:01;;;;;;;12.77;8.23;;;;;;;22.18;50.22;101541.00;144992;610;6002;-77
2021/09/27 04:09:08;;;;;;;15.55;7.80;;;;;;;22.19;50.34;101536.59;144992;567;6004;-77
2021/09/27 04:11:58;;;;;;;15.82;8.65;;;;;;;22.19;50.30;101534.84;144992;595;6002;-76
2021/09/27 04:15:00;;;;;;;16.25;7.57;;;;;;;22.20;50.71;101535.72;144992;615;6004;-76
2021/09/27 04:18:08;;;;;;;15.68;7.75;;;;;;;22.19;50.76;101536.59;144992;582;6002;-77
2021/09/27 04:21:02;;;;;;;13.15;6.75;;;;;;;22.18;51.16;101543.66;144992;607;6004;-76
2021/09/27 04:23:58;;;;;;;11.43;6.45;;;;;;;22.20;50.90;101528.66;144992;607;6004;-76
2021/09/27 04:27:05;;;;;;;11.12;6.68;;;;;;;22.10;52.83;101530.47;144991;563;6000;-78
2021/09/27 04:30:16;;;;;;;9.90;6.35;;;;;;;22.13;51.20;101539.25;144992;627;6004;-75
2021/09/27 04:33:15;;;;;;;11.85;5.47;;;;;;;22.16;51.18;101540.16;144992;614;6004;-72
2021/09/27 04:36:09;;;;;;;8.15;5.47;;;;;;;22.19;51.60;101536.59;144992;615;6002;-72
2021/09/27 04:38:37;;;;;;;10.85;6.60;;;;;;;22.19;50.93;101540.12;144992;567;6004;-73
2021/09/27 04:41:54;;;;;;;13.45;7.05;;;;;;;22.19;51.49;101536.59;144992;567;6004;-75
2021/09/27 04:44:55;;;;;;;12.00;8.35;;;;;;;22.19;51.52;101548.06;144992;608;6005;-74
2021/09/27 04:47:55;;;;;;;16.73;8.85;;;;;;;22.20;51.22;101541.00;144992;575;6002;-75
2021/09/27 04:51:04;;;;;;;16.52;8.38;;;;;;;22.23;50.86;101549.78;144992;595;6004;-75
2021/09/27 04:53:59;;;;;;;14.05;8.52;;;;;;;22.28;51.21;101541.84;144992;584;6004;-77
2021/09/27 04:56:45;;;;;;;;;;;;;;;22.30;51.27;101545.37;144997;914;6002;-74
2021/09/27 05:00:08;;;;;;;13.98;7.62;;;;;;;22.34;50.70;101541.84;144997;636;6000;-75
2021/09/27 05:03:06;;;;;;;12.75;7.12;;;;;;;22.38;50.87;101538.28;144992;577;6002;-75
2021/09/27 05:06:27;;;;;;;9.00;6.00;;;;;;;22.39;51.03;101536.53;144992;580;6004;-75
2021/09/27 05:09:08;;;;;;;9.30;4.72;;;;;;;22.31;50.33;101539.19;144991;605;6000;-76
2021/09/27 05:12:07;;;;;;;9.88;4.65;;;;;;;22.28;50.76;101545.34;144992;618;6002;-76
2021/09/27 05:15:07;;;;;;;7.60;4.90;;;;;;;22.30;50.19;101541.84;144992;572;6002;-77
2021/09/27 05:18:31;;;;;;;10.07;5.05;;;;;;;22.39;50.19;101547.97;144992;579;6002;-77
2021/09/27 05:21:40;;;;;;;6.97;4.87;;;;;;;22.50;50.14;101557.62;144992;601;6002;-77
2021/09/27 05:24:48;;;;;;;8.43;5.50;;;;;;;22.57;49.68;101568.16;144992;600;6004;-77
2021/09/27 05:27:57;;;;;;;6.82;4.47;;;;;;;22.64;49.43;101569.00;144992;603;6002;-77
2021/09/27 05:30:55;;;;;;;8.90;4.55;;;;;;;22.71;49.49;101561.88;144992;570;6002;-75
2021/09/27 05:33:53;;;;;;;7.00;4.45;;;;;;;22.76;49.11;101562.72;144992;569;6004;-75
2021/09/27 05:36:57;;;;;;;7.80;4.65;;;;;;;22.81;49.23;101561.81;144992;589;6004;-77
2021/09/27 05:40:05;;;;;;;5.80;4.00;;;;;;;22.87;48.80;101562.63;144992;587;6004;-77
2021/09/27 05:43:18;;;;;;;8.15;3.75;;;;;;;22.93;48.73;101563.47;144992;595;6002;-76
2021/09/27 05:46:24;;;;;;;6.30;4.25;;;;;;;22.93;48.56;101559.94;144992;566;6002;-77
2021/09/27 05:49:03;;;;;;;8.80;4.62;;;;;;;22.97;48.33;101565.22;144992;642;6004;-76
2021/09/27 05:51:52;;;;;;;6.80;4.45;;;;;;;23.02;48.40;101562.53;144992;566;6005;-76
2021/09/27 05:54:56;;;;;;;8.95;4.78;;;;;;;23.08;48.35;101566.91;144992;579;6004;-77
2021/09/27 05:57:57;;;;;;;6.87;4.80;;;;;;;23.17;48.29;101567.69;144992;598;6002;-76
2021/09/27 06:00:51;;;;;;;7.20;4.37;;;;;;;23.26;48.13;101571.19;144992;576;6004;-76
2021/09/27 06:03:52;;;;;;;5.32;3.45;;;;;;;23.33;48.20;101572.84;144992;588;6004;-76
2021/09/27 06:06:37;;;;;;;7.30;3.83;;;;;;;23.41;47.76;101572.78;144992;622;6002;-77
2021/09/27 06:09:57;;;;;;;6.35;3.60;;;;;;;23.47;47.76;101568.28;144992;603;6002;-75
2021/09/27 06:12:48;;;;;;;9.80;3.80;;;;;;;23.49;47.56;101566.50;144992;585;6004;-76
2021/09/27 06:15:16;;;;;;;12.15;4.75;;;;;;;23.55;47.52;101565.56;144992;609;6002;-76
2021/09/27 06:18:26;;;;;;;10.07;6.90;;;;;;;23.62;47.15;101548.69;144992;588;6002;-76
2021/09/27 06:21:22;;;;;;;8.68;5.50;;;;;;;23.71;47.16;101558.31;144992;576;6002;-77
2021/09/27 06:24:33;;;;;;;5.82;4.57;;;;;;;23.79;46.82;101553.81;144992;596;6004;-75
2021/09/27 06:27:22;;;;;;;7.18;4.53;;;;;;;23.88;46.77;101552.88;144992;587;6002;-76
2021/09/27 06:30:17;;;;;;;6.78;4.10;;;;;;;23.99;46.99;101556.25;144992;579;6004;-75
2021/09/27 06:33:14;;;;;;;5.68;3.90;;;;;;;24.11;46.66;101557.00;144992;570;6002;-77
2021/09/27 06:35:43;;;;;;;6.68;3.28;;;;;;;24.23;46.75;101551.53;144992;564;6002;-78
2021/09/27 06:38:12;;;;;;;7.22;3.90;;;;;;;24.32;46.76;101547.84;144992;570;6002;-75
2021/09/27 06:40:43;;;;;;;5.62;3.30;;;;;;;24.41;46.77;101553.03;144991;590;6002;-76
2021/09/27 06:43:15;;;;;;;5.30;3.62;;;;;;;24.54;46.81;101562.56;144992;618;6002;-76
2021/09/27 06:45:41;;;;;;;7.85;4.07;;;;;;;24.66;46.50;101569.50;144992;642;6002;-76
2021/09/27 06:48:08;;;;;;;6.72;4.25;;;;;;;24.78;46.53;101564.00;144992;616;6002;-76
2021/09/27 06:50:34;;;;;;;6.18;4.03;;;;;;;24.90;46.17;101568.22;144992;599;6002;-76
2021/09/27 06:53:01;;;;;;;8.35;3.87;;;;;;;25.03;46.35;101579.53;144992;595;6002;-77
2021/09/27 06:55:27;;;;;;;5.60;3.80;;;;;;;25.15;45.96;101581.06;144992;580;6002;-77
2021/09/27 06:57:54;;;;;;;5.78;3.55;;;;;;;25.28;45.80;101566.72;144992;579;6002;-77
2021/09/27 07:00:21;;;;;;;5.43;3.65;;;;;;;25.43;46.19;101567.34;144992;597;6002;-76
2021/09/27 07:02:47;;;;;;;4.95;3.30;;;;;;;25.58;45.71;101567.06;144992;572;6002;-77
2021/09/27 07:05:14;;;;;;;5.47;3.35;;;;;;;25.74;45.70;101564.06;144992;594;6002;-76
2021/09/27 07:07:41;;;;;;;6.05;3.00;;;;;;;25.92;45.59;101571.69;144992;610;6002;-75
2021/09/27 07:10:11;;;;;;;5.65;3.10;;;;;;;26.11;45.94;101574.88;144992;587;6002;-76
2021/09/27 07:12:38;;;;;;;6.00;3.22;;;;;;;26.29;45.37;101568.25;144992;593;6002;-77
2021/09/27 07:15:05;;;;;;;5.72;4.70;;;;;;;26.46;45.36;101565.22;144992;912;6002;-77
2021/09/27 07:17:32;;;;;;;6.30;3.80;;;;;;;26.63;45.05;101578.16;144992;581;6002;-76
2021/09/27 07:19:59;;;;;;;6.40;3.08;;;;;;;26.77;45.21;101568.06;144992;867;6002;-77
2021/09/27 07:22:26;;;;;;;3.95;2.70;;;;;;;26.92;44.57;101564.12;144992;579;6002;-77
2021/09/27 07:24:52;;;;;;;6.43;2.90;;;;;;;27.08;45.19;101566.41;144992;602;6002;-77
2021/09/27 07:27:19;;;;;;;6.90;3.78;;;;;;;27.19;44.86;101572.34;144992;575;6002;-77
2021/09/27 07:29:45;;;;;;;8.32;3.37;;;;;;;27.30;44.37;101567.62;144992;564;6002;-77
2021/09/27 07:32:12;;;;;;;5.18;3.15;;;;;;;27.46;44.27;101569.91;144992;616;6002;-77
2021/09/27 07:34:39;;;;;;;5.15;3.80;;;;;;;27.59;44.17;101565.97;144992;569;6002;-77
2021/09/27 07:37:05;;;;;;;5.62;4.12;;;;;;;27.66;43.77;101569.31;144992;569;6002;-78
2021/09/27 07:39:33;;;;;;;6.57;4.60;;;;;;;27.69;43.89;101571.91;144992;590;6002;-77
2021/09/27 07:41:59;;;;;;;6.25;4.57;;;;;;;27.77;43.93;101569.03;144992;563;6002;-75
2021/09/27 07:44:27;;;;;;;5.57;4.22;;;;;;;27.88;43.72;101564.25;144992;695;6002;-78
2021/09/27 07:46:53;;;;;;;7.55;4.95;;;;;;;28.01;43.46;101560.34;144992;593;6002;-76
2021/09/27 07:49:20;;;;;;;7.32;4.53;;;;;;;28.06;43.40;101565.50;144992;617;6002;-76
2021/09/27 07:51:46;;;;;;;7.65;4.10;;;;;;;28.04;43.29;101564.69;144992;624;6002;-77
2021/09/27 07:54:13;;;;;;;7.78;5.00;;;;;;;27.88;38.28;101558.91;144992;608;6002;-76
2021/09/27 07:56:40;;;;;;;5.12;3.40;;;;;;;27.83;43.15;101555.50;144992;580;6002;-79
2021/09/27 07:59:06;;;;;;;5.85;3.87;;;;;;;27.90;43.22;101558.87;144992;598;6002;-76
2021/09/27 08:01:34;;;;;;;4.35;3.50;;;;;;;28.06;43.16;101554.84;144992;581;6002;-77
2021/09/27 08:04:01;;;;;;;6.50;4.40;;;;;;;28.24;42.81;101561.44;144992;587;6002;-76
2021/09/27 08:06:28;;;;;;;5.50;4.32;;;;;;;28.37;42.50;101561.91;144992;570;6002;-76
2021/09/27 08:08:54;;;;;;;5.05;3.72;;;;;;;28.50;42.51;101559.72;144992;591;6002;-77
2021/09/27 08:11:21;;;;;;;7.90;4.32;;;;;;;28.53;41.73;101571.19;144992;695;6002;-75
2021/09/27 08:13:47;;;;;;;6.40;3.65;;;;;;;28.32;40.69;101566.53;144992;640;6002;-78
2021/09/27 08:16:14;;;;;;;3.90;3.30;;;;;;;28.28;41.79;101564.88;144992;575;6002;-77
2021/09/27 08:18:41;;;;;;;4.50;3.22;;;;;;;28.13;41.28;101567.09;144991;627;6002;-78
2021/09/27 08:21:12;;;;;;;3.83;3.33;;;;;;;28.08;40.95;101563.69;144992;593;6002;-78
2021/09/27 08:23:39;;;;;;;6.87;3.33;;;;;;;27.75;40.94;101569.06;144993;564;6002;-77
2021/09/27 08:26:06;;;;;;;3.47;3.10;;;;;;;27.65;41.89;101559.59;144993;578;6002;-76
2021/09/27 08:28:33;;;;;;;3.60;3.00;;;;;;;27.49;42.01;101560.00;144993;565;6002;-78
2021/09/27 08:31:04;;;;;;;3.40;3.00;;;;;;;27.33;42.80;101562.22;144992;577;6002;-76
2021/09/27 08:33:31;;;;;;;5.12;3.00;;;;;;;27.23;42.89;101566.00;144993;579;6002;-77
2021/09/27 08:35:59;;;;;;;3.10;2.80;;;;;;;27.31;42.58;101555.16;144993;576;6002;-77
2021/09/27 08:38:27;;;;;;;3.65;2.80;;;;;;;27.17;42.79;101558.19;144993;565;6002;-75
2021/09/27 08:41:19;;;;;;;4.85;3.25;;;;;;;27.13;43.15;101551.19;144993;570;6002;-76
2021/09/27 08:44:42;;;;;;;4.57;3.22;;;;;;;27.03;44.10;101557.66;144993;585;6002;-76
2021/09/27 08:47:33;;;;;;;5.47;3.87;;;;;;;26.92;44.93;101556.16;144993;585;6002;-77
2021/09/27 08:50:36;;;;;;;7.18;4.37;;;;;;;26.83;45.45;101559.03;144993;589;6000;-78
2021/09/27 08:53:16;;;;;;;5.10;3.60;;;;;;;26.55;46.20;101559.69;144992;572;6000;-80
2021/09/27 08:55:42;;;;;;;5.65;3.97;;;;;;;26.46;46.75;101551.06;144992;593;6000;-80
2021/09/27 08:58:33;;;;;;;4.05;3.65;;;;;;;26.48;47.34;101551.87;144992;579;6000;-79
2021/09/27 09:01:13;;;;;;;4.93;3.45;;;;;;;26.56;46.86;101545.44;144992;912;6000;-79
2021/09/27 09:04:09;;;;;;;5.28;3.60;;;;;;;26.60;47.80;101546.28;144992;563;6000;-78
2021/09/27 09:06:46;;;;;;;5.18;3.20;;;;;;;26.54;47.47;101546.41;144992;580;6002;-79
2021/09/27 09:09:30;;;;;;;3.92;2.70;;;;;;;26.68;47.62;101544.31;144993;648;6002;-78
2021/09/27 09:12:01;;;;;;;4.12;3.25;;;;;;;26.46;49.47;101543.06;144993;577;6002;-77
2021/09/27 09:15:04;;;;;;;3.62;3.15;;;;;;;26.44;49.67;101545.75;144993;579;6002;-76
2021/09/27 09:17:55;;;;;;;3.40;3.10;;;;;;;26.47;49.53;101535.03;144993;570;6000;-78
2021/09/27 09:20:36;;;;;;;4.30;3.12;;;;;;;26.48;49.81;101535.91;144993;586;6000;-78
2021/09/27 09:23:04;;;;;;;3.58;3.28;;;;;;;26.57;49.54;101530.38;144993;588;6002;-79
2021/09/27 09:25:36;;;;;;;5.15;3.30;;;;;;;26.66;49.95;101527.50;144993;579;6002;-79
2021/09/27 09:28:09;;;;;;;5.20;3.20;;;;;;;26.74;49.48;101529.97;144993;588;6002;-78
2021/09/27 09:31:07;;;;;;;3.92;2.75;;;;;;;26.54;49.72;101522.44;144993;731;6002;-77
2021/09/27 09:33:55;;;;;;;4.15;2.47;;;;;;;26.67;49.07;101526.59;144993;596;6000;-79
2021/09/27 09:36:26;;;;;;;3.12;2.90;;;;;;;26.67;48.68;101525.72;144993;590;6000;-77
2021/09/27 09:38:54;;;;;;;4.10;2.70;;;;;;;26.62;48.88;101525.78;144993;577;6002;-76
2021/09/27 09:41:21;;;;;;;5.82;2.97;;;;;;;26.51;48.97;101519.88;144993;693;6002;-78
2021/09/27 09:43:51;;;;;;;3.72;2.62;;;;;;;26.49;49.49;101514.56;144993;598;6002;-79
2021/09/27 09:46:30;;;;;;;4.72;2.58;;;;;;;26.50;49.21;101512.78;144993;580;6002;-79
2021/09/27 09:49:17;;;;;;;3.28;2.90;;;;;;;26.40;48.58;101504.13;144993;564;6002;-79
2021/09/27 09:51:47;;;;;;;3.53;2.60;;;;;;;26.50;49.17;101510.12;144993;585;6004;-77
2021/09/27 09:54:28;;;;;;;4.22;3.35;;;;;;;26.57;48.75;101512.59;144993;587;6002;-78
2021/09/27 09:57:32;;;;;;;5.37;3.35;;;;;;;26.65;48.18;101506.25;144993;581;6002;-79
2021/09/27 10:00:17;;;;;;;7.10;2.58;;;;;;;26.83;48.14;101504.91;144992;586;6002;-77
2021/09/27 10:02:48;;;;;;;3.15;2.20;;;;;;;26.92;47.64;101499.34;144994;574;5002;-80
2021/09/27 10:05:30;;;;;;;4.28;2.70;;;;;;;27.03;46.67;101496.38;144994;581;5002;-78
2021/09/27 10:07:58;;;;;;;3.12;2.70;;;;;;;27.06;45.98;101486.53;144994;589;5002;-79
2021/09/27 10:10:43;;;;;;;4.22;2.70;;;;;;;26.96;46.19;101493.00;144993;576;5002;-80
2021/09/27 10:13:39;;;;;;;3.17;2.78;;;;;;;26.98;45.61;101499.19;144994;582;5004;-79
2021/09/27 10:16:08;;;;;;;;;;;;;;;26.89;45.04;101489.62;144998;912;5002;-78
2021/09/27 10:18:38;;;;;;;2.70;2.50;;;;;;;26.95;45.01;101488.59;144998;594;5002;-78
2021/09/27 10:21:25;;;;;;;4.15;2.60;;;;;;;26.76;46.27;101482.88;144994;583;5002;-79
2021/09/27 10:23:57;;;;;;;3.22;2.92;;;;;;;26.82;46.68;101487.16;144994;579;5002;-77
2021/09/27 10:26:32;;;;;;;2.60;2.40;;;;;;;26.86;45.95;101475.53;144994;569;5002;-78
2021/09/27 10:29:14;;;;;;;4.18;2.80;;;;;;;26.78;46.15;101475.72;144994;592;5002;-79
2021/09/27 10:31:51;;;;;;;2.60;2.40;;;;;;;26.75;44.92;101466.00;144994;585;5002;-78
2021/09/27 10:34:20;;;;;;;3.55;2.37;;;;;;;26.96;45.36;101464.59;144994;580;5002;-79
2021/09/27 10:36:51;;;;;;;4.05;2.80;;;;;;;26.92;43.82;101462.06;144994;595;5002;-79
2021/09/27 10:39:20;;;;;;;4.87;2.50;;;;;;;27.05;44.55;101466.12;144994;596;5002;-78
2021/09/27 10:42:04;;;;;;;3.33;2.37;;;;;;;27.17;43.85;101450.69;144994;596;5002;-80
2021/09/27 10:44:46;;;;;;;5.53;2.40;;;;;;;27.24;43.66;101454.97;144994;579;5002;-80
2021/09/27 10:47:24;;;;;;;2.60;2.37;;;;;;;27.32;41.66;101458.31;144994;585;5002;-78
2021/09/27 10:50:07;;;;;;;2.65;2.17;;;;;;;27.15;39.13;101443.66;144994;585;5002;-78
2021/09/27 10:53:10;;;;;;;5.43;3.05;;;;;;;27.09;41.28;101445.59;144994;597;5002;-76
2021/09/27 10:55:55;;;;;;;2.20;2.00;;;;;;;27.43;40.34;101442.00;144994;577;5004;-78
2021/09/27 10:58:29;;;;;;;;;;;;;;;27.45;39.52;101430.37;144998;913;5004;-79
2021/09/27 11:00:57;;;;;;;2.25;2.03;;;;;;;27.50;39.28;101427.56;144998;653;5000;-79
2021/09/27 11:03:53;;;;;;;2.20;2.00;;;;;;;27.45;40.20;101433.03;144994;593;5004;-78
2021/09/27 11:06:44;;;;;;;2.78;2.30;;;;;;;27.30;40.95;101421.03;144994;610;5004;-79
2021/09/27 11:09:36;;;;;;;2.60;2.40;;;;;;;27.36;42.09;101421.75;144994;584;5004;-78
2021/09/27 11:12:17;;;;;;;2.30;2.05;;;;;;;27.37;42.34;101416.37;144994;571;5002;-74
2021/09/27 11:14:51;;;;;;;2.10;1.80;;;;;;;27.24;42.59;101409.66;144994;718;5002;-74
2021/09/27 11:17:40;;;;;;;2.45;2.25;;;;;;;27.32;42.82;101405.00;144994;686;5002;-75
2021/09/27 11:21:09;;;;;;;2.50;2.03;;;;;;;27.45;41.92;101395.69;144994;627;5003;-74
2021/09/27 11:23:39;;;;;;;2.55;2.35;;;;;;;27.36;42.64;101403.97;144994;609;5002;-81
2021/09/27 11:26:36;;;;;;;2.55;2.00;;;;;;;27.45;42.52;101398.38;144994;604;5002;-76
2021/09/27 11:29:57;;;;;;;2.83;2.30;;;;;;;27.45;43.67;101393.03;144994;596;5004;-78
2021/09/27 11:32:43;;;;;;;2.85;2.40;;;;;;;27.32;44.57;101397.00;144994;588;5004;-75
2021/09/27 11:35:35;;;;;;;4.80;2.10;;;;;;;27.16;44.82;101404.53;144994;588;5000;-74
2021/09/27 11:38:30;;;;;;;3.12;2.10;;;;;;;27.36;44.48;101390.63;144994;583;5002;-76
2021/09/27 11:41:28;;;;;;;;;;;;;;;27.28;45.15;101400.63;144998;925;5002;-76
2021/09/27 11:44:25;;;;;;;2.55;2.20;;;;;;;27.22;46.08;101388.38;144998;611;5000;-76
2021/09/27 11:47:38;;;;;;;3.97;2.40;;;;;;;27.22;45.40;101385.72;144994;579;5004;-77
2021/09/27 11:50:09;;;;;;;3.45;2.53;;;;;;;27.32;45.13;101383.66;144994;582;5004;-74
2021/09/27 11:52:57;;;;;;;2.40;1.98;;;;;;;27.38;44.07;101375.50;144994;585;5004;-72
2021/09/27 11:55:35;;;;;;;4.93;2.85;;;;;;;27.33;44.24;101372.09;144994;589;5004;-79
2021/09/27 11:58:23;;;;;;;3.20;2.50;;;;;;;27.32;43.91;101375.69;144994;635;5004;-78
2021/09/27 12:01:09;;;;;;;3.28;2.40;;;;;;;27.51;43.57;101376.00;144994;573;5004;-76
2021/09/27 12:03:58;;;;;;;2.58;1.83;;;;;;;27.53;42.75;101367.94;144994;589;5004;-75
2021/09/27 12:06:32;;;;;;;2.83;1.80;;;;;;;27.56;42.58;101373.19;144994;566;5002;-75
2021/09/27 12:09:20;;;;;;;1.92;1.83;;;;;;;27.51;41.40;101374.19;144994;685;5002;-76
2021/09/27 12:11:57;;;;;;;3.08;1.70;;;;;;;27.38;41.02;101369.28;144994;570;5003;-79
2021/09/27 12:14:44;;;;;;;3.40;2.12;;;;;;;27.45;40.86;101365.50;144994;569;5002;-77
2021/09/27 12:17:17;;;;;;;4.25;2.05;;;;;;;27.55;40.74;101371.44;144994;575;5004;-76
2021/09/27 12:20:20;;;;;;;2.10;1.87;;;;;;;27.47;41.08;101359.22;144994;632;5005;-77
2021/09/27 12:23:00;;;;;;;2.35;2.12;;;;;;;27.46;40.97;101362.81;144994;587;5004;-79
2021/09/27 12:25:34;;;;;;;1.90;1.80;;;;;;;27.56;40.57;101362.53;144994;571;5004;-78
2021/09/27 12:28:08;;;;;;;3.17;2.22;;;;;;;27.56;39.51;101363.38;144994;684;5004;-78
2021/09/27 12:30:42;;;;;;;2.08;1.87;;;;;;;27.50;39.42;101355.56;144994;571;5004;-83
2021/09/27 12:33:12;;;;;;;2.30;2.10;;;;;;;27.51;39.71;101352.84;144994;580;5004;-79
2021/09/27 12:35:45;;;;;;;24.45;21.37;;;;;;;27.47;39.69;101358.34;144994;572;5004;-79
2021/09/27 12:38:18;;;;;;;4.05;3.75;;;;;;;27.50;40.46;101353.81;144994;589;5004;-78
2021/09/27 12:40:51;;;;;;;3.10;2.50;;;;;;;27.53;41.58;101352.81;144994;576;5004;-76
2021/09/27 12:43:21;;;;;;;3.33;2.83;;;;;;;27.46;45.53;101349.47;144994;710;5004;-79
2021/09/27 12:45:58;;;;;;;3.40;3.10;;;;;;;27.43;44.97;101352.22;144994;599;5004;-76
2021/09/27 12:48:58;;;;;;;3.30;3.00;;;;;;;27.46;46.91;101344.12;144994;579;5004;-76
2021/09/27 12:51:50;;;;;;;2.92;2.72;;;;;;;27.57;47.45;101349.16;144994;725;5002;-73
2021/09/27 12:54:45;;;;;;;3.08;2.70;;;;;;;27.58;48.34;101348.19;144994;585;5002;-82